Time;durP1;ratioP1;P1;durP2;ratioP2;P2;SDS_P1;SDS_P2;PMS_P1;PMS_P2;Temp;Humidity;BMP_temperature;BMP_pressure;BME280_temperature;BME280_humidity;BME280_pressure;Samples;Min_cycle;Max_cycle;Signal;HPM_P1;HPM_P2
2022/10/24 00:01:10;;;;;;;;;;;;;;;;;;5032265;28;20384;-62
2022/10/24 00:03:36;;;;;;;;;;;;;;;;;;5034049;28;19913;-64
2022/10/24 00:06:02;;;;;;;;;;;;;;;;;;5033514;28;20341;-63
2022/10/24 00:08:28;;;;;;;;;;;;;;;;;;5033264;28;20260;-63
2022/10/24 00:10:54;;;;;;;;;;;;;;;;;;5032812;28;19909;-62
2022/10/24 00:13:20;;;;;;;;;;;;;;;;;;5031350;28;20389;-63
2022/10/24 00:15:46;;;;;;;;;;;;;;;;;;5033755;28;19956;-63
2022/10/24 00:18:12;;;;;;;;;;;;;;;;;;5033176;28;19909;-64
2022/10/24 00:20:37;;;;;;;;;;;;;;;;;;5033165;28;19915;-64
2022/10/24 00:23:03;;;;;;;;;;;;;;;;;;5033241;28;19909;-62
2022/10/24 00:25:29;;;;;;;;;;;;;;;;;;5032798;28;19963;-63
2022/10/24 00:27:55;;;;;;;;;;;;;;;;;;5033192;28;20393;-64
2022/10/24 00:30:21;;;;;;;;;;;;;;;;;;5033188;28;19909;-64
2022/10/24 00:32:47;;;;;;;;;;;;;;;;;;5033223;28;20015;-63
2022/10/24 00:35:13;;;;;;;;;;;;;;;;;;5033007;28;19913;-63
2022/10/24 00:37:39;;;;;;;;;;;;;;;;;;5032927;28;19917;-63
2022/10/24 00:40:05;;;;;;;;;;;;;;;;;;5032494;28;20000;-63
2022/10/24 00:42:30;;;;;;;;;;;;;;;;;;5032751;28;19909;-63
2022/10/24 00:44:56;;;;;;;;;;;;;;;;;;5032047;28;19916;-64
2022/10/24 00:47:23;;;;;;;;;;;;;;;;;;5032979;28;19909;-63
2022/10/24 00:49:49;;;;;;;;;;;;;;;;;;5032527;28;20016;-63
2022/10/24 00:52:15;;;;;;;;;;;;;;;;;;5032424;28;20546;-63
2022/10/24 00:54:41;;;;;;;;;;;;;;;;;;5032376;28;19913;-62
2022/10/24 00:57:07;;;;;;;;;;;;;;;;;;5032832;28;19914;-64
2022/10/24 00:59:33;;;;;;;;;;;;;;;;;;5032427;28;19909;-62
2022/10/24 01:01:58;;;;;;;;;;;;;;;;;;5030875;28;19987;-63
2022/10/24 01:04:24;;;;;;;;;;;;;;;;;;5032307;28;19909;-62
2022/10/24 01:06:50;;;;;;;;;;;;;;;;;;5032795;28;19913;-61
2022/10/24 01:09:16;;;;;;;;;;;;;;;;;;5031334;28;19936;-63
2022/10/24 01:11:42;;;;;;;;;;;;;;;;;;5032163;28;19984;-63
2022/10/24 01:14:08;;;;;;;;;;;;;;;;;;5031870;28;19955;-62
2022/10/24 01:16:34;;;;;;;;;;;;;;;;;;5032215;28;19909;-63
2022/10/24 01:19:00;;;;;;;;;;;;;;;;;;5032511;28;19913;-62
2022/10/24 01:21:26;;;;;;;;;;;;;;;;;;5031789;28;20324;-63
2022/10/24 01:23:51;;;;;;;;;;;;;;;;;;5032021;28;19963;-62
2022/10/24 01:26:17;;;;;;;;;;;;;;;;;;5031560;28;19971;-62
2022/10/24 01:28:43;;;;;;;;;;;;;;;;;;5032218;28;20611;-63
2022/10/24 01:31:09;;;;;;;;;;;;;;;;;;5031309;28;19910;-64
2022/10/24 01:33:35;;;;;;;;;;;;;;;;;;5031946;28;19928;-63
2022/10/24 01:36:01;;;;;;;;;;;;;;;;;;5031962;28;19910;-64
2022/10/24 01:38:27;;;;;;;;;;;;;;;;;;5031382;28;19909;-63
2022/10/24 01:40:53;;;;;;;;;;;;;;;;;;5031540;28;20367;-63
2022/10/24 01:43:19;;;;;;;;;;;;;;;;;;5031483;28;20378;-62
2022/10/24 01:45:44;;;;;;;;;;;;;;;;;;5032094;28;19949;-64
2022/10/24 01:48:10;;;;;;;;;;;;;;;;;;5031044;28;19959;-63
2022/10/24 01:50:36;;;;;;;;;;;;;;;;;;5031495;28;19910;-62
2022/10/24 01:53:02;;;;;;;;;;;;;;;;;;5030652;28;20338;-63
2022/10/24 01:55:28;;;;;;;;;;;;;;;;;;5031351;28;19966;-61
2022/10/24 01:57:54;;;;;;;;;;;;;;;;;;5031084;28;19951;-63
2022/10/24 02:00:20;;;;;;;;;;;;;;;;;;5031219;28;19913;-63
2022/10/24 02:02:46;;;;;;;;;;;;;;;;;;5031501;28;19948;-63
2022/10/24 02:05:12;;;;;;;;;;;;;;;;;;5030812;28;19963;-63
2022/10/24 02:07:37;;;;;;;;;;;;;;;;;;5031014;28;19913;-61
2022/10/24 02:10:03;;;;;;;;;;;;;;;;;;5030900;28;19913;-64
2022/10/24 02:12:29;;;;;;;;;;;;;;;;;;5030999;28;20070;-62
2022/10/24 02:14:55;;;;;;;;;;;;;;;;;;5030858;28;19913;-63
2022/10/24 02:17:21;;;;;;;;;;;;;;;;;;5024117;28;19914;-60
2022/10/24 02:19:47;;;;;;;;;;;;;;;;;;5030484;28;20405;-64
2022/10/24 02:22:13;;;;;;;;;;;;;;;;;;5030434;28;19921;-61
2022/10/24 02:24:38;;;;;;;;;;;;;;;;;;5030925;28;20286;-63
2022/10/24 02:27:04;;;;;;;;;;;;;;;;;;5031268;28;20003;-63
2022/10/24 02:29:30;;;;;;;;;;;;;;;;;;5030735;28;20393;-63
2022/10/24 02:31:56;;;;;;;;;;;;;;;;;;5030592;28;19917;-64
2022/10/24 02:34:22;;;;;;;;;;;;;;;;;;5030824;28;19916;-63
2022/10/24 02:36:48;;;;;;;;;;;;;;;;;;5030759;28;19913;-63
2022/10/24 02:39:14;;;;;;;;;;;;;;;;;;5030691;28;19913;-63
2022/10/24 02:41:40;;;;;;;;;;;;;;;;;;5031082;28;20007;-62
2022/10/24 02:44:06;;;;;;;;;;;;;;;;;;5030916;28;19913;-64
2022/10/24 02:46:32;;;;;;;;;;;;;;;;;;5030717;28;20389;-63
2022/10/24 02:48:57;;;;;;;;;;;;;;;;;;5030732;28;20011;-64
2022/10/24 02:51:23;;;;;;;;;;;;;;;;;;5030246;28;19910;-63
2022/10/24 02:53:49;;;;;;;;;;;;;;;;;;5030917;28;20570;-63
2022/10/24 02:56:15;;;;;;;;;;;;;;;;;;5030642;28;20437;-63
2022/10/24 02:58:41;;;;;;;;;;;;;;;;;;5024185;28;20012;-62
2022/10/24 03:01:07;;;;;;;;;;;;;;;;;;5030866;28;19914;-63
2022/10/24 03:03:33;;;;;;;;;;;;;;;;;;5022451;28;20392;-63
2022/10/24 03:05:59;;;;;;;;;;;;;;;;;;5030689;28;19916;-63
2022/10/24 03:08:25;;;;;;;;;;;;;;;;;;5031146;28;19920;-62
2022/10/24 03:10:51;;;;;;;;;;;;;;;;;;5034869;28;19909;-63
2022/10/24 03:13:16;;;;;;;;;;;;;;;;;;5034566;28;20290;-64
2022/10/24 03:15:42;;;;;;;;;;;;;;;;;;5034379;28;19967;-63
2022/10/24 03:18:08;;;;;;;;;;;;;;;;;;5034099;28;20282;-63
2022/10/24 03:20:34;;;;;;;;;;;;;;;;;;5034453;28;19909;-63
2022/10/24 03:23:00;;;;;;;;;;;;;;;;;;5034426;28;19917;-63
2022/10/24 03:25:26;;;;;;;;;;;;;;;;;;5034199;28;20440;-63
2022/10/24 03:27:52;;;;;;;;;;;;;;;;;;5033264;28;19967;-63
2022/10/24 03:30:18;;;;;;;;;;;;;;;;;;5034478;28;20001;-62
2022/10/24 03:32:44;;;;;;;;;;;;;;;;;;5034075;28;19928;-60
2022/10/24 03:35:10;;;;;;;;;;;;;;;;;;5033927;28;19913;-62
2022/10/24 03:37:35;;;;;;;;;;;;;;;;;;5034336;28;19974;-62
2022/10/24 03:40:01;;;;;;;;;;;;;;;;;;5033965;28;20267;-62
2022/10/24 03:42:27;;;;;;;;;;;;;;;;;;5034178;28;19957;-63
2022/10/24 03:44:53;;;;;;;;;;;;;;;;;;5033872;28;19909;-65
2022/10/24 03:47:19;;;;;;;;;;;;;;;;;;5032518;28;19913;-61
2022/10/24 03:49:45;;;;;;;;;;;;;;;;;;5055915;28;20314;-63
2022/10/24 03:52:11;;;;;;;;;;;;;;;;;;5033524;28;19921;-63
2022/10/24 03:54:38;;;;;;;;;;;;;;;;;;5034159;28;19917;-62
2022/10/24 03:57:04;;;;;;;;;;;;;;;;;;5033581;28;20127;-62
2022/10/24 03:59:30;;;;;;;;;;;;;;;;;;5033734;28;19917;-63
2022/10/24 04:01:58;;;;;;;;;;;;;;;;;;5026977;28;19916;-61
2022/10/24 04:04:24;;;;;;;;;;;;;;;;;;5027213;28;19909;-63
2022/10/24 04:06:50;;;;;;;;;;;;;;;;;;5033506;28;19913;-63
2022/10/24 04:09:16;;;;;;;;;;;;;;;;;;5033177;28;19917;-64
2022/10/24 04:11:42;;;;;;;;;;;;;;;;;;5033137;28;19916;-63
2022/10/24 04:14:08;;;;;;;;;;;;;;;;;;5033112;28;20003;-62
2022/10/24 04:16:34;;;;;;;;;;;;;;;;;;5032715;28;19913;-62
2022/10/24 04:19:00;;;;;;;;;;;;;;;;;;5033100;28;19922;-62
2022/10/24 04:21:26;;;;;;;;;;;;;;;;;;5031586;28;19955;-63
2022/10/24 04:23:51;;;;;;;;;;;;;;;;;;5033659;28;20413;-62
2022/10/24 04:26:17;;;;;;;;;;;;;;;;;;5033192;28;20011;-62
2022/10/24 04:28:45;;;;;;;;;;;;;;;;;;5033302;28;20758;-63
2022/10/24 04:31:11;;;;;;;;;;;;;;;;;;5032632;28;20359;-62
2022/10/24 04:33:37;;;;;;;;;;;;;;;;;;5032950;28;19928;-63
2022/10/24 04:36:03;;;;;;;;;;;;;;;;;;5033007;28;19963;-63
2022/10/24 04:38:29;;;;;;;;;;;;;;;;;;5031625;28;19909;-62
2022/10/24 04:40:56;;;;;;;;;;;;;;;;;;5032576;28;20021;-61
2022/10/24 04:43:22;;;;;;;;;;;;;;;;;;5032839;28;20300;-62
2022/10/24 04:45:47;;;;;;;;;;;;;;;;;;5032447;28;20375;-62
2022/10/24 04:48:13;;;;;;;;;;;;;;;;;;5032355;28;19917;-62
2022/10/24 04:50:39;;;;;;;;;;;;;;;;;;5032038;28;19909;-62
2022/10/24 04:53:05;;;;;;;;;;;;;;;;;;5032404;28;19963;-63
2022/10/24 04:55:31;;;;;;;;;;;;;;;;;;5031997;28;20382;-61
2022/10/24 04:57:57;;;;;;;;;;;;;;;;;;5032524;28;19916;-62
2022/10/24 05:00:23;;;;;;;;;;;;;;;;;;5032115;28;19909;-62
2022/10/24 05:02:49;;;;;;;;;;;;;;;;;;5032385;28;19915;-65
2022/10/24 05:05:16;;;;;;;;;;;;;;;;;;5031892;28;19909;-65
2022/10/24 05:07:41;;;;;;;;;;;;;;;;;;5031756;28;19910;-64
2022/10/24 05:10:07;;;;;;;;;;;;;;;;;;5031799;28;19939;-63
2022/10/24 05:12:33;;;;;;;;;;;;;;;;;;5025916;28;20000;-65
2022/10/24 05:14:59;;;;;;;;;;;;;;;;;;5031614;28;20317;-64
2022/10/24 05:17:25;;;;;;;;;;;;;;;;;;5031380;28;20282;-63
2022/10/24 05:19:51;;;;;;;;;;;;;;;;;;5031491;28;20353;-64
2022/10/24 05:22:17;;;;;;;;;;;;;;;;;;5031691;28;19910;-61
2022/10/24 05:24:43;;;;;;;;;;;;;;;;;;5031453;28;19913;-63
2022/10/24 05:27:09;;;;;;;;;;;;;;;;;;5029806;28;19910;-62
2022/10/24 05:29:34;;;;;;;;;;;;;;;;;;5030970;28;20008;-64
2022/10/24 05:32:00;;;;;;;;;;;;;;;;;;5031104;28;19921;-64
2022/10/24 05:34:26;;;;;;;;;;;;;;;;;;5031778;28;19909;-61
2022/10/24 05:36:52;;;;;;;;;;;;;;;;;;5030902;28;19947;-64
2022/10/24 05:39:18;;;;;;;;;;;;;;;;;;5030835;28;19920;-63
2022/10/24 05:41:44;;;;;;;;;;;;;;;;;;5031620;28;19959;-65
2022/10/24 05:44:10;;;;;;;;;;;;;;;;;;5030856;28;19915;-64
2022/10/24 05:46:36;;;;;;;;;;;;;;;;;;5031234;28;19913;-64
2022/10/24 05:49:01;;;;;;;;;;;;;;;;;;5029714;28;19932;-63
2022/10/24 05:51:27;;;;;;;;;;;;;;;;;;5028989;28;20370;-61
2022/10/24 05:53:53;;;;;;;;;;;;;;;;;;5027920;28;19972;-63
2022/10/24 05:56:19;;;;;;;;;;;;;;;;;;5031342;28;20362;-64
2022/10/24 05:58:45;;;;;;;;;;;;;;;;;;5030973;28;20326;-64
2022/10/24 06:01:11;;;;;;;;;;;;;;;;;;5031231;28;19909;-65
2022/10/24 06:03:38;;;;;;;;;;;;;;;;;;5031117;28;20008;-63
2022/10/24 06:06:04;;;;;;;;;;;;;;;;;;5031163;28;19988;-63
2022/10/24 06:08:30;;;;;;;;;;;;;;;;;;5031723;28;20361;-65
2022/10/24 06:10:56;;;;;;;;;;;;;;;;;;5029892;28;19913;-62
2022/10/24 06:13:21;;;;;;;;;;;;;;;;;;5030425;28;20375;-63
2022/10/24 06:15:47;;;;;;;;;;;;;;;;;;5024573;28;20004;-63
2022/10/24 06:18:13;;;;;;;;;;;;;;;;;;5031451;28;19950;-63
2022/10/24 06:20:39;;;;;;;;;;;;;;;;;;5031045;28;19909;-63
2022/10/24 06:23:05;;;;;;;;;;;;;;;;;;5030749;28;19909;-64
2022/10/24 06:25:31;;;;;;;;;;;;;;;;;;5030463;28;20016;-63
2022/10/24 06:27:57;;;;;;;;;;;;;;;;;;5030567;28;20352;-64
2022/10/24 06:30:23;;;;;;;;;;;;;;;;;;5030819;28;19955;-62
2022/10/24 06:32:48;;;;;;;;;;;;;;;;;;5030656;28;19917;-62
2022/10/24 06:35:14;;;;;;;;;;;;;;;;;;5030632;28;19909;-63
2022/10/24 06:37:40;;;;;;;;;;;;;;;;;;5029819;28;19909;-63
2022/10/24 06:40:06;;;;;;;;;;;;;;;;;;5030513;28;20351;-62
2022/10/24 06:42:32;;;;;;;;;;;;;;;;;;5030269;28;19917;-63
2022/10/24 06:44:58;;;;;;;;;;;;;;;;;;5027508;28;19913;-64
2022/10/24 06:47:24;;;;;;;;;;;;;;;;;;5034957;28;19915;-64
2022/10/24 06:49:50;;;;;;;;;;;;;;;;;;5033777;28;20030;-62
2022/10/24 06:52:16;;;;;;;;;;;;;;;;;;5034533;28;20313;-63
2022/10/24 06:54:42;;;;;;;;;;;;;;;;;;5034483;28;19917;-68
2022/10/24 06:57:08;;;;;;;;;;;;;;;;;;5034908;28;19909;-69
2022/10/24 06:59:34;;;;;;;;;;;;;;;;;;5033131;28;19920;-67
2022/10/24 07:02:00;;;;;;;;;;;;;;;;;;5034747;28;20397;-69
2022/10/24 07:04:26;;;;;;;;;;;;;;;;;;5033900;28;19917;-68
2022/10/24 07:06:52;;;;;;;;;;;;;;;;;;5033121;28;20296;-68
2022/10/24 07:09:17;;;;;;;;;;;;;;;;;;5032957;28;19916;-66
2022/10/24 07:11:43;;;;;;;;;;;;;;;;;;5034094;28;19940;-68
2022/10/24 07:14:09;;;;;;;;;;;;;;;;;;5034572;28;20424;-69
2022/10/24 07:16:35;;;;;;;;;;;;;;;;;;5034593;28;19920;-69
2022/10/24 07:19:01;;;;;;;;;;;;;;;;;;5027009;28;20422;-67
2022/10/24 07:21:27;;;;;;;;;;;;;;;;;;5031150;28;19925;-66
2022/10/24 07:23:53;;;;;;;;;;;;;;;;;;5032444;28;19913;-68
2022/10/24 07:26:19;;;;;;;;;;;;;;;;;;5032137;28;20000;-66
2022/10/24 07:28:45;;;;;;;;;;;;;;;;;;5032935;28;20448;-67
2022/10/24 07:31:13;;;;;;;;;;;;;;;;;;5032977;28;19910;-68
2022/10/24 07:33:39;;;;;;;;;;;;;;;;;;5032425;28;19928;-66
2022/10/24 07:36:05;;;;;;;;;;;;;;;;;;5032794;28;19909;-67
2022/10/24 07:38:31;;;;;;;;;;;;;;;;;;5032748;28;20031;-67
2022/10/24 07:40:57;;;;;;;;;;;;;;;;;;5032440;28;19913;-67
2022/10/24 07:43:23;;;;;;;;;;;;;;;;;;5032222;28;20417;-67
2022/10/24 07:45:49;;;;;;;;;;;;;;;;;;5032931;28;19916;-67
2022/10/24 07:48:14;;;;;;;;;;;;;;;;;;5032279;28;19996;-67
2022/10/24 07:50:40;;;;;;;;;;;;;;;;;;5032084;28;19914;-67
2022/10/24 07:53:06;;;;;;;;;;;;;;;;;;5032532;28;19917;-68
2022/10/24 07:55:32;;;;;;;;;;;;;;;;;;5031540;28;19913;-67
2022/10/24 07:57:58;;;;;;;;;;;;;;;;;;5032261;28;20008;-67
2022/10/24 08:00:24;;;;;;;;;;;;;;;;;;5025679;28;20289;-66
2022/10/24 08:02:50;;;;;;;;;;;;;;;;;;5032284;28;19909;-66
2022/10/24 08:05:16;;;;;;;;;;;;;;;;;;5031862;28;20382;-67
2022/10/24 08:07:41;;;;;;;;;;;;;;;;;;5032165;28;19917;-67
2022/10/24 08:10:09;;;;;;;;;;;;;;;;;;5031263;28;19971;-65
2022/10/24 08:12:35;;;;;;;;;;;;;;;;;;5032402;28;19917;-60
2022/10/24 08:15:01;;;;;;;;;;;;;;;;;;5031592;28;20353;-61
2022/10/24 08:17:26;;;;;;;;;;;;;;;;;;5031349;28;19909;-60
2022/10/24 08:19:53;;;;;;;;;;;;;;;;;;5031264;28;19920;-60
2022/10/24 08:22:18;;;;;;;;;;;;;;;;;;5031401;28;19996;-60
2022/10/24 08:24:44;;;;;;;;;;;;;;;;;;5031554;28;20490;-61
2022/10/24 08:27:10;;;;;;;;;;;;;;;;;;5031025;28;19933;-60
2022/10/24 08:29:36;;;;;;;;;;;;;;;;;;5030908;28;19909;-59
2022/10/24 08:32:02;;;;;;;;;;;;;;;;;;5031549;28;19910;-60
2022/10/24 08:34:28;;;;;;;;;;;;;;;;;;5031351;28;19956;-60
2022/10/24 08:36:54;;;;;;;;;;;;;;;;;;5032065;28;19959;-60
2022/10/24 08:39:20;;;;;;;;;;;;;;;;;;5031047;28;19913;-59
2022/10/24 08:41:46;;;;;;;;;;;;;;;;;;5027373;28;19949;-61
2022/10/24 08:44:13;;;;;;;;;;;;;;;;;;5029608;28;19917;-60
2022/10/24 08:46:39;;;;;;;;;;;;;;;;;;5031752;28;19955;-60
2022/10/24 08:49:04;;;;;;;;;;;;;;;;;;5030908;28;19925;-61
2022/10/24 08:51:30;;;;;;;;;;;;;;;;;;5031085;28;19917;-61
2022/10/24 08:53:56;;;;;;;;;;;;;;;;;;5031426;28;20400;-60
2022/10/24 08:56:22;;;;;;;;;;;;;;;;;;5031306;28;20088;-60
2022/10/24 08:58:50;;;;;;;;;;;;;;;;;;5031164;28;19967;-60
2022/10/24 09:01:16;;;;;;;;;;;;;;;;;;5031005;28;19913;-61
2022/10/24 09:03:42;;;;;;;;;;;;;;;;;;5031754;28;19913;-59
2022/10/24 09:06:08;;;;;;;;;;;;;;;;;;5029797;28;20368;-59
2022/10/24 09:08:34;;;;;;;;;;;;;;;;;;5030707;28;20715;-59
2022/10/24 09:11:00;;;;;;;;;;;;;;;;;;5030539;28;19924;-60
2022/10/24 09:13:25;;;;;;;;;;;;;;;;;;5030246;28;20416;-60
2022/10/24 09:15:51;;;;;;;;;;;;;;;;;;5030042;28;20047;-60
2022/10/24 09:18:18;;;;;;;;;;;;;;;;;;5030988;28;20606;-61
2022/10/24 09:20:44;;;;;;;;;;;;;;;;;;5030650;28;19974;-60
2022/10/24 09:23:09;;;;;;;;;;;;;;;;;;5030309;28;19999;-61
2022/10/24 09:25:35;;;;;;;;;;;;;;;;;;5030318;28;19947;-60
2022/10/24 09:28:01;;;;;;;;;;;;;;;;;;5024035;28;19952;-61
2022/10/24 09:30:27;;;;;;;;;;;;;;;;;;5030621;28;20378;-60
2022/10/24 09:32:53;;;;;;;;;;;;;;;;;;5030518;28;19921;-60
2022/10/24 09:35:19;;;;;;;;;;;;;;;;;;5029829;28;19909;-60
2022/10/24 09:37:45;;;;;;;;;;;;;;;;;;5030300;28;20420;-61
2022/10/24 09:40:11;;;;;;;;;;;;;;;;;;5030225;28;19972;-61
2022/10/24 09:42:37;;;;;;;;;;;;;;;;;;5030314;28;20299;-61
2022/10/24 09:45:02;;;;;;;;;;;;;;;;;;5030437;28;19909;-59
2022/10/24 09:47:28;;;;;;;;;;;;;;;;;;5030006;28;19998;-58
2022/10/24 09:49:54;;;;;;;;;;;;;;;;;;5030000;28;19928;-60
2022/10/24 09:52:22;;;;;;;;;;;;;;;;;;5029239;28;20129;-63
2022/10/24 09:54:48;;;;;;;;;;;;;;;;;;5030655;28;19916;-60
2022/10/24 09:57:14;;;;;;;;;;;;;;;;;;5030102;28;20370;-61
2022/10/24 09:59:41;;;;;;;;;;;;;;;;;;5029803;28;19936;-60
2022/10/24 10:02:06;;;;;;;;;;;;;;;;;;5029554;28;20397;-60
2022/10/24 10:04:32;;;;;;;;;;;;;;;;;;5029340;28;19909;-59
2022/10/24 10:06:58;;;;;;;;;;;;;;;;;;5023801;28;19932;-61
2022/10/24 10:09:24;;;;;;;;;;;;;;;;;;5030138;28;19913;-60
2022/10/24 10:11:50;;;;;;;;;;;;;;;;;;5030178;28;19940;-59
2022/10/24 10:14:16;;;;;;;;;;;;;;;;;;5029728;28;20008;-59
2022/10/24 10:16:42;;;;;;;;;;;;;;;;;;5029457;28;19967;-60
2022/10/24 10:19:08;;;;;;;;;;;;;;;;;;5029512;28;20274;-59
2022/10/24 10:21:33;;;;;;;;;;;;;;;;;;5029819;28;19962;-59
2022/10/24 10:24:00;;;;;;;;;;;;;;;;;;5029945;28;20405;-62
2022/10/24 10:26:26;;;;;;;;;;;;;;;;;;5029983;28;19913;-60
2022/10/24 10:28:52;;;;;;;;;;;;;;;;;;5029269;28;19924;-59
2022/10/24 10:31:18;;;;;;;;;;;;;;;;;;5028941;28;20014;-59
2022/10/24 10:33:44;;;;;;;;;;;;;;;;;;5029458;28;19963;-60
2022/10/24 10:36:10;;;;;;;;;;;;;;;;;;5029269;28;20028;-59
2022/10/24 10:38:36;;;;;;;;;;;;;;;;;;5026760;28;19910;-59
2022/10/24 10:41:02;;;;;;;;;;;;;;;;;;5029255;28;19909;-60
2022/10/24 10:43:28;;;;;;;;;;;;;;;;;;5028290;28;20055;-58
2022/10/24 10:45:53;;;;;;;;;;;;;;;;;;5030964;28;19909;-59
2022/10/24 10:48:19;;;;;;;;;;;;;;;;;;5029991;28;19917;-63
2022/10/24 10:50:45;;;;;;;;;;;;;;;;;;5030511;28;20293;-59
2022/10/24 10:53:11;;;;;;;;;;;;;;;;;;5030789;28;20338;-63
2022/10/24 10:55:37;;;;;;;;;;;;;;;;;;5028468;28;19913;-62
2022/10/24 10:58:03;;;;;;;;;;;;;;;;;;5029498;28;19996;-60
2022/10/24 11:00:29;;;;;;;;;;;;;;;;;;5030893;28;19959;-63
2022/10/24 11:02:55;;;;;;;;;;;;;;;;;;5029581;28;19996;-62
2022/10/24 11:05:21;;;;;;;;;;;;;;;;;;5030344;28;19940;-62
2022/10/24 11:07:47;;;;;;;;;;;;;;;;;;5030375;28;19944;-63
2022/10/24 11:10:13;;;;;;;;;;;;;;;;;;5030876;28;19909;-60
2022/10/24 11:12:39;;;;;;;;;;;;;;;;;;5030308;28;19921;-61
2022/10/24 11:15:05;;;;;;;;;;;;;;;;;;5030659;28;19944;-62
2022/10/24 11:17:31;;;;;;;;;;;;;;;;;;5030134;28;19921;-63
2022/10/24 11:19:57;;;;;;;;;;;;;;;;;;5030251;28;19963;-61
2022/10/24 11:22:23;;;;;;;;;;;;;;;;;;5030371;28;19909;-62
2022/10/24 11:24:48;;;;;;;;;;;;;;;;;;5030312;28;19952;-62
2022/10/24 11:27:14;;;;;;;;;;;;;;;;;;5030503;28;19960;-62
2022/10/24 11:29:40;;;;;;;;;;;;;;;;;;5031556;28;19909;-61
2022/10/24 11:32:06;;;;;;;;;;;;;;;;;;5033520;28;19909;-62
2022/10/24 11:34:32;;;;;;;;;;;;;;;;;;5034303;28;19909;-62
2022/10/24 11:36:58;;;;;;;;;;;;;;;;;;5034120;28;19909;-61
2022/10/24 11:39:24;;;;;;;;;;;;;;;;;;5033594;28;20497;-62
2022/10/24 11:41:50;;;;;;;;;;;;;;;;;;5033996;28;19909;-61
2022/10/24 11:44:16;;;;;;;;;;;;;;;;;;5034197;28;19987;-61
2022/10/24 11:46:41;;;;;;;;;;;;;;;;;;5033570;28;19917;-62
2022/10/24 11:49:07;;;;;;;;;;;;;;;;;;5033967;28;20375;-63
2022/10/24 11:51:33;;;;;;;;;;;;;;;;;;5033826;28;19917;-62
2022/10/24 11:53:59;;;;;;;;;;;;;;;;;;5033807;28;19924;-63
2022/10/24 11:56:29;;;;;;;;;;;;;;;;;;5034052;28;19909;-62
2022/10/24 11:58:55;;;;;;;;;;;;;;;;;;5033666;28;19909;-61
2022/10/24 12:01:21;;;;;;;;;;;;;;;;;;5033414;28;20286;-62
2022/10/24 12:03:47;;;;;;;;;;;;;;;;;;5033714;28;19955;-62
2022/10/24 12:06:13;;;;;;;;;;;;;;;;;;5033878;28;20297;-62
2022/10/24 12:08:39;;;;;;;;;;;;;;;;;;5033567;28;19917;-62
2022/10/24 12:11:04;;;;;;;;;;;;;;;;;;5034042;28;19909;-60
2022/10/24 12:13:30;;;;;;;;;;;;;;;;;;5033090;28;19956;-63
2022/10/24 12:15:57;;;;;;;;;;;;;;;;;;5033410;28;19940;-62
2022/10/24 12:18:22;;;;;;;;;;;;;;;;;;5033560;28;19915;-62
2022/10/24 12:20:48;;;;;;;;;;;;;;;;;;5033373;28;19923;-62
2022/10/24 12:23:14;;;;;;;;;;;;;;;;;;5033711;28;20488;-62
2022/10/24 12:25:40;;;;;;;;;;;;;;;;;;5033453;28;19957;-61
2022/10/24 12:28:07;;;;;;;;;;;;;;;;;;5032974;28;19913;-62
2022/10/24 12:30:33;;;;;;;;;;;;;;;;;;5033597;28;20007;-60
2022/10/24 12:32:59;;;;;;;;;;;;;;;;;;5033057;28;20024;-62
2022/10/24 12:35:25;;;;;;;;;;;;;;;;;;5033176;28;19916;-63
2022/10/24 12:37:51;;;;;;;;;;;;;;;;;;5032967;28;20366;-62
2022/10/24 12:40:16;;;;;;;;;;;;;;;;;;5032479;28;19920;-62
2022/10/24 12:42:42;;;;;;;;;;;;;;;;;;5031972;28;20286;-60
2022/10/24 12:45:08;;;;;;;;;;;;;;;;;;5033137;28;20044;-63
2022/10/24 12:47:34;;;;;;;;;;;;;;;;;;5031393;28;20370;-62
2022/10/24 12:50:00;;;;;;;;;;;;;;;;;;5025942;28;19921;-61
2022/10/24 12:52:26;;;;;;;;;;;;;;;;;;5032884;28;19928;-62
2022/10/24 12:54:52;;;;;;;;;;;;;;;;;;5031579;28;20421;-61
2022/10/24 12:57:18;;;;;;;;;;;;;;;;;;5032832;28;20003;-61
2022/10/24 12:59:43;;;;;;;;;;;;;;;;;;5032329;28;20382;-61
2022/10/24 13:02:09;;;;;;;;;;;;;;;;;;5033130;28;19913;-60
2022/10/24 13:04:35;;;;;;;;;;;;;;;;;;5032761;28;19915;-62
2022/10/24 13:07:01;;;;;;;;;;;;;;;;;;5032337;28;19909;-62
2022/10/24 13:09:27;;;;;;;;;;;;;;;;;;5032434;28;19984;-62
2022/10/24 13:11:53;;;;;;;;;;;;;;;;;;5032262;28;20305;-62
2022/10/24 13:14:19;;;;;;;;;;;;;;;;;;5032496;28;19917;-62
2022/10/24 13:16:45;;;;;;;;;;;;;;;;;;5032312;28;19909;-60
2022/10/24 13:19:12;;;;;;;;;;;;;;;;;;5032817;28;20000;-62
2022/10/24 13:21:38;;;;;;;;;;;;;;;;;;5032217;28;19913;-61
2022/10/24 13:24:03;;;;;;;;;;;;;;;;;;5031939;28;19917;-62
2022/10/24 13:26:29;;;;;;;;;;;;;;;;;;5032259;28;20374;-61
2022/10/24 13:28:55;;;;;;;;;;;;;;;;;;5031783;28;19909;-62
2022/10/24 13:31:21;;;;;;;;;;;;;;;;;;5032079;28;19909;-62
2022/10/24 13:33:48;;;;;;;;;;;;;;;;;;5028417;28;20010;-61
2022/10/24 13:36:15;;;;;;;;;;;;;;;;;;5031934;28;20007;-62
2022/10/24 13:38:41;;;;;;;;;;;;;;;;;;5031340;28;19916;-61
2022/10/24 13:41:07;;;;;;;;;;;;;;;;;;5031723;28;19916;-62
2022/10/24 13:43:33;;;;;;;;;;;;;;;;;;5031191;28;19917;-61
2022/10/24 13:45:59;;;;;;;;;;;;;;;;;;5031945;28;19909;-62
2022/10/24 13:48:25;;;;;;;;;;;;;;;;;;5031491;28;19963;-61
2022/10/24 13:50:51;;;;;;;;;;;;;;;;;;5031634;28;20375;-62
2022/10/24 13:53:17;;;;;;;;;;;;;;;;;;5030782;28;19917;-60
2022/10/24 13:55:45;;;;;;;;;;;;;;;;;;5031880;28;20382;-62
2022/10/24 13:58:11;;;;;;;;;;;;;;;;;;5025270;28;20442;-60
2022/10/24 14:00:37;;;;;;;;;;;;;;;;;;5031604;28;20000;-61
2022/10/24 14:03:03;;;;;;;;;;;;;;;;;;5031268;28;19916;-61
2022/10/24 14:05:28;;;;;;;;;;;;;;;;;;5026759;28;19945;-59
2022/10/24 14:07:54;;;;;;;;;;;;;;;;;;5028962;28;20630;-61
2022/10/24 14:10:20;;;;;;;;;;;;;;;;;;5030181;28;20476;-63
2022/10/24 14:12:50;;;;;;;;;;;;;;;;;;5029832;28;19971;-60
2022/10/24 14:15:16;;;;;;;;;;;;;;;;;;5030593;28;19979;-61
2022/10/24 14:17:42;;;;;;;;;;;;;;;;;;5029983;28;19913;-61
2022/10/24 14:20:08;;;;;;;;;;;;;;;;;;5029693;28;19917;-62
2022/10/24 14:22:34;;;;;;;;;;;;;;;;;;5028715;28;19913;-63
2022/10/24 14:25:00;;;;;;;;;;;;;;;;;;5030142;28;19916;-62
2022/10/24 14:27:26;;;;;;;;;;;;;;;;;;5029539;28;20297;-62
2022/10/24 14:29:52;;;;;;;;;;;;;;;;;;5029882;28;20378;-61
2022/10/24 14:32:18;;;;;;;;;;;;;;;;;;5030224;28;19909;-63
2022/10/24 14:34:43;;;;;;;;;;;;;;;;;;5029454;28;19968;-61
2022/10/24 14:37:09;;;;;;;;;;;;;;;;;;5029354;28;19909;-63
2022/10/24 14:39:35;;;;;;;;;;;;;;;;;;5028109;28;19948;-61
2022/10/24 14:42:01;;;;;;;;;;;;;;;;;;5029239;28;20374;-60
2022/10/24 14:44:27;;;;;;;;;;;;;;;;;;5029443;28;19913;-62
2022/10/24 14:46:53;;;;;;;;;;;;;;;;;;5028990;28;20639;-63
2022/10/24 14:49:19;;;;;;;;;;;;;;;;;;5028870;28;19928;-61
2022/10/24 14:51:45;;;;;;;;;;;;;;;;;;5029669;28;19933;-62
2022/10/24 14:54:11;;;;;;;;;;;;;;;;;;5029329;28;19921;-61
2022/10/24 14:56:36;;;;;;;;;;;;;;;;;;5029177;28;20291;-61
2022/10/24 14:59:02;;;;;;;;;;;;;;;;;;5028950;28;19921;-60
2022/10/24 15:01:28;;;;;;;;;;;;;;;;;;5028625;28;20590;-61
2022/10/24 15:03:54;;;;;;;;;;;;;;;;;;5028950;28;19973;-63
2022/10/24 15:06:20;;;;;;;;;;;;;;;;;;5031268;28;19982;-62
2022/10/24 15:08:49;;;;;;;;;;;;;;;;;;5033085;28;19909;-60
2022/10/24 15:11:15;;;;;;;;;;;;;;;;;;5032941;28;20373;-61
2022/10/24 15:13:41;;;;;;;;;;;;;;;;;;5033251;28;19971;-62
2022/10/24 15:16:07;;;;;;;;;;;;;;;;;;5033072;28;19909;-60
2022/10/24 15:18:35;;;;;;;;;;;;;;;;;;5032764;28;19960;-61
2022/10/24 15:21:01;;;;;;;;;;;;;;;;;;5033341;28;19988;-61
2022/10/24 15:23:27;;;;;;;;;;;;;;;;;;5033030;28;20283;-58
2022/10/24 15:25:55;;;;;;;;;;;;;;;;;;5033355;28;19909;-61
2022/10/24 15:28:21;;;;;;;;;;;;;;;;;;5033203;28;19983;-61
2022/10/24 15:30:47;;;;;;;;;;;;;;;;;;5033103;28;19910;-61
2022/10/24 15:33:15;;;;;;;;;;;;;;;;;;5032515;28;19921;-62
2022/10/24 15:35:41;;;;;;;;;;;;;;;;;;5032599;28;20247;-60
2022/10/24 15:38:06;;;;;;;;;;;;;;;;;;5030697;28;20043;-62
2022/10/24 15:40:32;;;;;;;;;;;;;;;;;;5026074;28;19952;-64
2022/10/24 15:42:58;;;;;;;;;;;;;;;;;;5032168;28;19921;-60
2022/10/24 15:45:24;;;;;;;;;;;;;;;;;;5030768;28;19910;-62
2022/10/24 15:47:50;;;;;;;;;;;;;;;;;;5032606;28;19916;-63
2022/10/24 15:50:16;;;;;;;;;;;;;;;;;;5032243;28;19928;-62
2022/10/24 15:52:42;;;;;;;;;;;;;;;;;;5032833;28;20302;-62
2022/10/24 15:55:08;;;;;;;;;;;;;;;;;;5032922;28;20018;-62
2022/10/24 15:57:35;;;;;;;;;;;;;;;;;;5032405;28;20007;-60
2022/10/24 16:00:01;;;;;;;;;;;;;;;;;;5032960;28;20022;-60
2022/10/24 16:02:26;;;;;;;;;;;;;;;;;;5032176;28;20374;-62
2022/10/24 16:04:52;;;;;;;;;;;;;;;;;;5033654;28;19913;-61
2022/10/24 16:07:18;;;;;;;;;;;;;;;;;;5033314;28;19909;-60
2022/10/24 16:09:44;;;;;;;;;;;;;;;;;;5032556;28;19963;-61
2022/10/24 16:12:10;;;;;;;;;;;;;;;;;;5032009;28;19959;-61
2022/10/24 16:14:36;;;;;;;;;;;;;;;;;;5032782;28;19952;-61
2022/10/24 16:17:02;;;;;;;;;;;;;;;;;;5032519;28;19916;-62
2022/10/24 16:19:28;;;;;;;;;;;;;;;;;;5032955;28;19913;-63
2022/10/24 16:21:57;;;;;;;;;;;;;;;;;;5029381;28;20016;-62
2022/10/24 16:24:23;;;;;;;;;;;;;;;;;;5027137;28;19939;-62
2022/10/24 16:26:48;;;;;;;;;;;;;;;;;;5033073;28;20381;-60
2022/10/24 16:29:14;;;;;;;;;;;;;;;;;;5033397;28;19970;-62
2022/10/24 16:31:41;;;;;;;;;;;;;;;;;;5033382;28;19917;-61
2022/10/24 16:34:07;;;;;;;;;;;;;;;;;;5032639;28;19948;-61
2022/10/24 16:36:33;;;;;;;;;;;;;;;;;;5032851;28;19913;-62